sensor_id;sensor_type;location;lat;lon;timestamp;pressure;altitude;pressure_sealevel;temperature;humidity
10946;BME280;5525;42.648;23.368;2023-04-02T00:01:42;93804.13;;;8.43;100.00
10946;BME280;5525;42.648;23.368;2023-04-02T00:04:14;93800.44;;;8.48;100.00
10946;BME280;5525;42.648;23.368;2023-04-02T00:06:47;93789.53;;;8.44;100.00
10946;BME280;5525;42.648;23.368;2023-04-02T00:09:23;93799.19;;;8.45;100.00
10946;BME280;5525;42.648;23.368;2023-04-02T00:11:53;93797.41;;;8.49;100.00
10946;BME280;5525;42.648;23.368;2023-04-02T00:14:24;93802.78;;;8.49;100.00
10946;BME280;5525;42.648;23.368;2023-04-02T00:16:53;93809.16;;;8.45;100.00
10946;BME280;5525;42.648;23.368;2023-04-02T00:19:24;93809.41;;;8.52;100.00
10946;BME280;5525;42.648;23.368;2023-04-02T00:21:56;93800.75;;;8.46;100.00
10946;BME280;5525;42.648;23.368;2023-04-02T00:24:23;93807.44;;;8.28;100.00
10946;BME280;5525;42.648;23.368;2023-04-02T00:26:51;93806.09;;;8.34;100.00
10946;BME280;5525;42.648;23.368;2023-04-02T00:29:20;93793.31;;;8.31;100.00
10946;BME280;5525;42.648;23.368;2023-04-02T00:31:48;93784.53;;;8.22;100.00
10946;BME280;5525;42.648;23.368;2023-04-02T00:34:18;93782.88;;;8.30;100.00
10946;BME280;5525;42.648;23.368;2023-04-02T00:36:46;93771.34;;;8.29;100.00
10946;BME280;5525;42.648;23.368;2023-04-02T00:39:18;93779.06;;;8.31;100.00
10946;BME280;5525;42.648;23.368;2023-04-02T00:41:45;93786.84;;;8.44;100.00
10946;BME280;5525;42.648;23.368;2023-04-02T00:44:13;93783.59;;;8.39;100.00
10946;BME280;5525;42.648;23.368;2023-04-02T00:46:48;93777.03;;;8.48;100.00
10946;BME280;5525;42.648;23.368;2023-04-02T00:49:21;93789.13;;;8.54;100.00
10946;BME280;5525;42.648;23.368;2023-04-02T00:51:52;93785.78;;;8.57;100.00
10946;BME280;5525;42.648;23.368;2023-04-02T00:54:22;93786.56;;;8.58;100.00
10946;BME280;5525;42.648;23.368;2023-04-02T00:56:52;93787.59;;;8.66;100.00
10946;BME280;5525;42.648;23.368;2023-04-02T00:59:25;93768.84;;;8.57;100.00
10946;BME280;5525;42.648;23.368;2023-04-02T01:01:57;93768.44;;;8.67;100.00
10946;BME280;5525;42.648;23.368;2023-04-02T01:04:32;93772.81;;;8.72;100.00
10946;BME280;5525;42.648;23.368;2023-04-02T01:07:04;93783.25;;;8.73;100.00
10946;BME280;5525;42.648;23.368;2023-04-02T01:09:45;93778.88;;;8.69;100.00
10946;BME280;5525;42.648;23.368;2023-04-02T01:12:29;93786.88;;;8.56;100.00
10946;BME280;5525;42.648;23.368;2023-04-02T01:15:05;93783.53;;;8.59;100.00
10946;BME280;5525;42.648;23.368;2023-04-02T01:17:47;93793.25;;;8.52;100.00
10946;BME280;5525;42.648;23.368;2023-04-02T01:20:44;93791.22;;;8.49;100.00
10946;BME280;5525;42.648;23.368;2023-04-02T01:23:21;93802.34;;;8.06;100.00
10946;BME280;5525;42.648;23.368;2023-04-02T01:25:54;93810.06;;;7.67;100.00
10946;BME280;5525;42.648;23.368;2023-04-02T01:28:26;93816.53;;;7.45;100.00
10946;BME280;5525;42.648;23.368;2023-04-02T01:31:00;93814.91;;;7.24;100.00
10946;BME280;5525;42.648;23.368;2023-04-02T01:33:29;93811.97;;;7.00;100.00
10946;BME280;5525;42.648;23.368;2023-04-02T01:36:00;93810.66;;;6.76;100.00
10946;BME280;5525;42.648;23.368;2023-04-02T01:38:33;93810.03;;;6.71;100.00
10946;BME280;5525;42.648;23.368;2023-04-02T01:41:07;93806.72;;;6.74;100.00
10946;BME280;5525;42.648;23.368;2023-04-02T01:43:44;93785.78;;;6.59;100.00
10946;BME280;5525;42.648;23.368;2023-04-02T01:46:27;93807.84;;;6.73;100.00
10946;BME280;5525;42.648;23.368;2023-04-02T01:48:56;93804.66;;;6.79;100.00
10946;BME280;5525;42.648;23.368;2023-04-02T01:51:28;93799.19;;;7.05;100.00
10946;BME280;5525;42.648;23.368;2023-04-02T01:53:57;93796.13;;;7.15;100.00
10946;BME280;5525;42.648;23.368;2023-04-02T01:56:26;93801.06;;;7.05;100.00
10946;BME280;5525;42.648;23.368;2023-04-02T01:58:55;93789.91;;;7.03;100.00
10946;BME280;5525;42.648;23.368;2023-04-02T02:01:27;93793.03;;;7.05;100.00
10946;BME280;5525;42.648;23.368;2023-04-02T02:03:56;93795.06;;;7.08;100.00
10946;BME280;5525;42.648;23.368;2023-04-02T02:06:23;93796.34;;;7.10;100.00
10946;BME280;5525;42.648;23.368;2023-04-02T02:08:52;93795.81;;;7.17;100.00
10946;BME280;5525;42.648;23.368;2023-04-02T02:11:23;93791.06;;;7.22;100.00
10946;BME280;5525;42.648;23.368;2023-04-02T02:13:54;93801.97;;;7.17;100.00
10946;BME280;5525;42.648;23.368;2023-04-02T02:16:22;93804.47;;;7.22;100.00
10946;BME280;5525;42.648;23.368;2023-04-02T02:18:52;93798.06;;;7.06;100.00
10946;BME280;5525;42.648;23.368;2023-04-02T02:21:28;93799.25;;;6.88;100.00
10946;BME280;5525;42.648;23.368;2023-04-02T02:23:58;93802.94;;;6.66;100.00
10946;BME280;5525;42.648;23.368;2023-04-02T02:26:27;93807.56;;;6.49;100.00
10946;BME280;5525;42.648;23.368;2023-04-02T02:28:54;93809.50;;;6.31;100.00
10946;BME280;5525;42.648;23.368;2023-04-02T02:31:26;93809.03;;;6.12;100.00
10946;BME280;5525;42.648;23.368;2023-04-02T02:33:59;93805.44;;;6.08;100.00
10946;BME280;5525;42.648;23.368;2023-04-02T02:36:32;93804.94;;;6.06;100.00
10946;BME280;5525;42.648;23.368;2023-04-02T02:39:03;93805.91;;;6.02;100.00
10946;BME280;5525;42.648;23.368;2023-04-02T02:41:36;93793.63;;;6.01;100.00
10946;BME280;5525;42.648;23.368;2023-04-02T02:44:11;93792.50;;;5.93;100.00
10946;BME280;5525;42.648;23.368;2023-04-02T02:46:43;93805.28;;;5.96;100.00
10946;BME280;5525;42.648;23.368;2023-04-02T02:49:15;93794.38;;;6.01;100.00
10946;BME280;5525;42.648;23.368;2023-04-02T02:51:46;93811.88;;;5.99;100.00
10946;BME280;5525;42.648;23.368;2023-04-02T02:54:14;93809.22;;;5.90;100.00
10946;BME280;5525;42.648;23.368;2023-04-02T02:56:47;93792.84;;;5.92;100.00
10946;BME280;5525;42.648;23.368;2023-04-02T02:59:18;93799.44;;;5.94;100.00
10946;BME280;5525;42.648;23.368;2023-04-02T03:01:46;93791.88;;;5.96;100.00
10946;BME280;5525;42.648;23.368;2023-04-02T03:04:18;93792.50;;;6.10;100.00
10946;BME280;5525;42.648;23.368;2023-04-02T03:06:47;93791.06;;;6.04;100.00
10946;BME280;5525;42.648;23.368;2023-04-02T03:09:19;93779.56;;;5.95;100.00
10946;BME280;5525;42.648;23.368;2023-04-02T03:11:49;93797.88;;;6.10;100.00
10946;BME280;5525;42.648;23.368;2023-04-02T03:14:22;93802.09;;;6.03;100.00
10946;BME280;5525;42.648;23.368;2023-04-02T03:16:57;93808.41;;;5.98;100.00
10946;BME280;5525;42.648;23.368;2023-04-02T03:19:31;93815.03;;;6.01;100.00
10946;BME280;5525;42.648;23.368;2023-04-02T03:22:04;93822.63;;;5.90;100.00
10946;BME280;5525;42.648;23.368;2023-04-02T03:24:36;93814.88;;;5.97;100.00
10946;BME280;5525;42.648;23.368;2023-04-02T03:27:10;93814.56;;;5.90;100.00
10946;BME280;5525;42.648;23.368;2023-04-02T03:29:40;93814.84;;;5.80;100.00
10946;BME280;5525;42.648;23.368;2023-04-02T03:32:15;93818.63;;;5.79;100.00
10946;BME280;5525;42.648;23.368;2023-04-02T03:34:47;93828.53;;;5.79;100.00
10946;BME280;5525;42.648;23.368;2023-04-02T03:37:18;93824.13;;;5.74;100.00
10946;BME280;5525;42.648;23.368;2023-04-02T03:39:51;93830.63;;;5.82;100.00
10946;BME280;5525;42.648;23.368;2023-04-02T03:42:22;93830.44;;;5.78;100.00
10946;BME280;5525;42.648;23.368;2023-04-02T03:44:53;93825.06;;;5.78;100.00
10946;BME280;5525;42.648;23.368;2023-04-02T03:47:28;93832.94;;;5.66;100.00
10946;BME280;5525;42.648;23.368;2023-04-02T03:50:00;93828.53;;;5.79;100.00
10946;BME280;5525;42.648;23.368;2023-04-02T03:52:28;93823.66;;;5.64;100.00
10946;BME280;5525;42.648;23.368;2023-04-02T03:54:58;93835.94;;;5.56;100.00
10946;BME280;5525;42.648;23.368;2023-04-02T03:57:30;93830.25;;;5.58;100.00
10946;BME280;5525;42.648;23.368;2023-04-02T04:00:03;93821.75;;;5.47;100.00
10946;BME280;5525;42.648;23.368;2023-04-02T04:02:40;93811.81;;;5.39;100.00
10946;BME280;5525;42.648;23.368;2023-04-02T04:05:20;93823.91;;;5.37;100.00
10946;BME280;5525;42.648;23.368;2023-04-02T04:07:50;93826.09;;;5.26;100.00
10946;BME280;5525;42.648;23.368;2023-04-02T04:10:22;93838.06;;;5.29;100.00
10946;BME280;5525;42.648;23.368;2023-04-02T04:12:53;93839.50;;;5.43;100.00
10946;BME280;5525;42.648;23.368;2023-04-02T04:15:24;93828.97;;;5.38;100.00
10946;BME280;5525;42.648;23.368;2023-04-02T04:17:58;93828.19;;;5.38;100.00
10946;BME280;5525;42.648;23.368;2023-04-02T04:20:33;93838.25;;;5.49;100.00
10946;BME280;5525;42.648;23.368;2023-04-02T04:23:10;93839.84;;;5.50;100.00
10946;BME280;5525;42.648;23.368;2023-04-02T04:25:40;93849.75;;;5.41;100.00
10946;BME280;5525;42.648;23.368;2023-04-02T04:28:14;93853.25;;;5.50;100.00
10946;BME280;5525;42.648;23.368;2023-04-02T04:30:50;93852.63;;;5.53;100.00
10946;BME280;5525;42.648;23.368;2023-04-02T04:33:21;93854.50;;;5.44;100.00
10946;BME280;5525;42.648;23.368;2023-04-02T04:35:54;93852.88;;;5.35;100.00
10946;BME280;5525;42.648;23.368;2023-04-02T04:38:29;93859.63;;;5.32;100.00
10946;BME280;5525;42.648;23.368;2023-04-02T04:41:00;93864.72;;;5.42;100.00
10946;BME280;5525;42.648;23.368;2023-04-02T04:43:36;93868.81;;;5.48;100.00
10946;BME280;5525;42.648;23.368;2023-04-02T04:46:09;93866.16;;;5.48;100.00
10946;BME280;5525;42.648;23.368;2023-04-02T04:48:45;93867.41;;;5.51;100.00
10946;BME280;5525;42.648;23.368;2023-04-02T04:51:20;93869.00;;;5.60;100.00
10946;BME280;5525;42.648;23.368;2023-04-02T04:53:49;93865.38;;;5.65;100.00
10946;BME280;5525;42.648;23.368;2023-04-02T04:56:22;93871.84;;;5.72;100.00
10946;BME280;5525;42.648;23.368;2023-04-02T04:58:52;93871.28;;;5.84;100.00
10946;BME280;5525;42.648;23.368;2023-04-02T05:01:23;93869.41;;;5.84;100.00
10946;BME280;5525;42.648;23.368;2023-04-02T05:03:57;93868.16;;;5.90;100.00
10946;BME280;5525;42.648;23.368;2023-04-02T05:06:34;93866.28;;;5.99;100.00
10946;BME280;5525;42.648;23.368;2023-04-02T05:09:06;93871.78;;;5.86;100.00
10946;BME280;5525;42.648;23.368;2023-04-02T05:11:40;93870.50;;;6.00;100.00
10946;BME280;5525;42.648;23.368;2023-04-02T05:14:17;93872.72;;;6.15;100.00
10946;BME280;5525;42.648;23.368;2023-04-02T05:16:52;93868.00;;;6.12;100.00
10946;BME280;5525;42.648;23.368;2023-04-02T05:19:25;93865.66;;;6.19;100.00
10946;BME280;5525;42.648;23.368;2023-04-02T05:21:58;93872.56;;;6.29;100.00
10946;BME280;5525;42.648;23.368;2023-04-02T05:24:41;93875.22;;;6.46;100.00
10946;BME280;5525;42.648;23.368;2023-04-02T05:27:28;93885.31;;;6.49;100.00
10946;BME280;5525;42.648;23.368;2023-04-02T05:30:00;93873.81;;;6.57;100.00
10946;BME280;5525;42.648;23.368;2023-04-02T05:32:30;93881.22;;;6.68;100.00
10946;BME280;5525;42.648;23.368;2023-04-02T05:35:00;93890.34;;;6.76;100.00
10946;BME280;5525;42.648;23.368;2023-04-02T05:37:40;93893.66;;;6.90;100.00
10946;BME280;5525;42.648;23.368;2023-04-02T16:21:21;93832.09;;;14.97;38.55
10946;BME280;5525;42.648;23.368;2023-04-02T16:23:49;93833.59;;;14.95;38.26
10946;BME280;5525;42.648;23.368;2023-04-02T16:26:27;93829.38;;;14.97;37.74
10946;BME280;5525;42.648;23.368;2023-04-02T16:29:04;93837.22;;;15.06;38.22
10946;BME280;5525;42.648;23.368;2023-04-02T16:31:40;93842.22;;;15.00;37.67
10946;BME280;5525;42.648;23.368;2023-04-02T16:34:15;93835.56;;;14.94;37.87
10946;BME280;5525;42.648;23.368;2023-04-02T16:36:52;93841.97;;;14.79;38.33
10946;BME280;5525;42.648;23.368;2023-04-02T16:39:32;93847.69;;;14.71;38.57
10946;BME280;5525;42.648;23.368;2023-04-02T16:42:07;93838.91;;;14.55;38.93
10946;BME280;5525;42.648;23.368;2023-04-02T16:44:46;93850.44;;;14.45;39.54
10946;BME280;5525;42.648;23.368;2023-04-02T16:47:33;93843.72;;;14.35;40.68
10946;BME280;5525;42.648;23.368;2023-04-02T16:50:14;93853.50;;;14.17;40.95
10946;BME280;5525;42.648;23.368;2023-04-02T16:52:51;93851.03;;;14.09;42.53
10946;BME280;5525;42.648;23.368;2023-04-02T16:55:40;93848.09;;;13.95;44.03
10946;BME280;5525;42.648;23.368;2023-04-02T16:58:21;93845.94;;;13.81;45.18
10946;BME280;5525;42.648;23.368;2023-04-02T17:00:54;93857.81;;;13.73;45.77
10946;BME280;5525;42.648;23.368;2023-04-02T17:03:45;93871.53;;;13.57;46.84
10946;BME280;5525;42.648;23.368;2023-04-02T17:06:20;93869.75;;;13.46;47.86
10946;BME280;5525;42.648;23.368;2023-04-02T17:08:53;93876.09;;;13.31;48.42
10946;BME280;5525;42.648;23.368;2023-04-02T17:11:24;93881.34;;;13.24;49.91
10946;BME280;5525;42.648;23.368;2023-04-02T17:13:56;93880.16;;;13.02;50.92
10946;BME280;5525;42.648;23.368;2023-04-02T17:16:34;93888.50;;;12.94;51.50
10946;BME280;5525;42.648;23.368;2023-04-02T17:19:08;93886.56;;;12.75;52.34
10946;BME280;5525;42.648;23.368;2023-04-02T17:21:36;93887.28;;;12.72;53.21
10946;BME280;5525;42.648;23.368;2023-04-02T17:24:14;93891.03;;;12.68;52.93
10946;BME280;5525;42.648;23.368;2023-04-02T17:26:50;93895.31;;;12.50;54.13
10946;BME280;5525;42.648;23.368;2023-04-02T17:29:19;93898.56;;;12.40;54.49
10946;BME280;5525;42.648;23.368;2023-04-02T17:31:47;93903.81;;;12.33;54.88
10946;BME280;5525;42.648;23.368;2023-04-02T17:34:16;93911.06;;;12.29;54.46
10946;BME280;5525;42.648;23.368;2023-04-02T17:36:50;93909.41;;;12.24;55.29
10946;BME280;5525;42.648;23.368;2023-04-02T17:39:22;93915.69;;;12.28;55.34
10946;BME280;5525;42.648;23.368;2023-04-02T17:42:04;93925.94;;;12.19;56.79
10946;BME280;5525;42.648;23.368;2023-04-02T17:44:51;93930.22;;;12.05;56.82
10946;BME280;5525;42.648;23.368;2023-04-02T17:47:22;93929.78;;;12.03;57.30
10946;BME280;5525;42.648;23.368;2023-04-02T17:50:04;93932.13;;;11.88;58.09
10946;BME280;5525;42.648;23.368;2023-04-02T17:52:40;93930.91;;;11.86;58.13
10946;BME280;5525;42.648;23.368;2023-04-02T17:55:18;93938.88;;;11.95;58.09
10946;BME280;5525;42.648;23.368;2023-04-02T17:57:53;93940.94;;;11.85;58.62
10946;BME280;5525;42.648;23.368;2023-04-02T18:00:40;93942.78;;;11.81;59.81
10946;BME280;5525;42.648;23.368;2023-04-02T18:03:30;93945.13;;;11.67;61.08
10946;BME280;5525;42.648;23.368;2023-04-02T18:06:02;93941.63;;;11.67;60.80
10946;BME280;5525;42.648;23.368;2023-04-02T18:08:38;93949.94;;;11.74;60.72
10946;BME280;5525;42.648;23.368;2023-04-02T18:11:18;93953.47;;;11.62;61.42
10946;BME280;5525;42.648;23.368;2023-04-02T18:13:52;93950.53;;;11.67;61.20
10946;BME280;5525;42.648;23.368;2023-04-02T18:16:32;93955.75;;;11.60;61.78
10946;BME280;5525;42.648;23.368;2023-04-02T18:19:11;93943.84;;;11.49;62.56
10946;BME280;5525;42.648;23.368;2023-04-02T18:21:46;93959.88;;;11.42;64.08
10946;BME280;5525;42.648;23.368;2023-04-02T18:24:27;93963.88;;;11.33;65.04
10946;BME280;5525;42.648;23.368;2023-04-02T18:27:08;93968.16;;;11.34;65.92
10946;BME280;5525;42.648;23.368;2023-04-02T18:29:43;93972.69;;;11.30;66.05
10946;BME280;5525;42.648;23.368;2023-04-02T18:32:33;93963.38;;;11.15;66.32
10946;BME280;5525;42.648;23.368;2023-04-02T18:35:09;93989.72;;;11.18;66.59
10946;BME280;5525;42.648;23.368;2023-04-02T18:37:50;93989.13;;;11.25;66.87
10946;BME280;5525;42.648;23.368;2023-04-02T18:40:27;93993.31;;;11.22;66.65
10946;BME280;5525;42.648;23.368;2023-04-02T18:43:03;93994.88;;;11.23;66.96
10946;BME280;5525;42.648;23.368;2023-04-02T18:45:40;93993.41;;;11.26;66.99
10946;BME280;5525;42.648;23.368;2023-04-02T18:48:23;93994.53;;;11.25;66.83
10946;BME280;5525;42.648;23.368;2023-04-02T18:50:53;93998.03;;;11.25;66.40
10946;BME280;5525;42.648;23.368;2023-04-02T18:53:22;93997.94;;;11.22;67.20
10946;BME280;5525;42.648;23.368;2023-04-02T18:55:54;93998.38;;;11.24;66.64
10946;BME280;5525;42.648;23.368;2023-04-02T18:58:24;94002.31;;;11.26;66.81
10946;BME280;5525;42.648;23.368;2023-04-02T19:00:52;94012.88;;;11.31;66.56
10946;BME280;5525;42.648;23.368;2023-04-02T19:03:26;94011.78;;;11.20;67.00
10946;BME280;5525;42.648;23.368;2023-04-02T19:05:58;94008.69;;;11.34;66.35
10946;BME280;5525;42.648;23.368;2023-04-02T19:08:28;94009.91;;;11.36;66.30
10946;BME280;5525;42.648;23.368;2023-04-02T19:10:58;94002.81;;;11.32;66.81
10946;BME280;5525;42.648;23.368;2023-04-02T19:13:27;94005.28;;;11.37;66.49
10946;BME280;5525;42.648;23.368;2023-04-02T19:16:06;94008.50;;;11.27;67.22
10946;BME280;5525;42.648;23.368;2023-04-02T19:18:46;94002.31;;;11.26;67.53
10946;BME280;5525;42.648;23.368;2023-04-02T19:21:24;94013.00;;;11.23;67.83
10946;BME280;5525;42.648;23.368;2023-04-02T19:24:05;94012.22;;;11.22;68.33
10946;BME280;5525;42.648;23.368;2023-04-02T19:26:42;94012.00;;;11.15;68.28
10946;BME280;5525;42.648;23.368;2023-04-02T19:29:23;94010.09;;;11.16;68.82
10946;BME280;5525;42.648;23.368;2023-04-02T19:31:58;94015.56;;;11.04;69.86
10946;BME280;5525;42.648;23.368;2023-04-02T19:34:36;94007.09;;;11.05;70.22
10946;BME280;5525;42.648;23.368;2023-04-02T19:37:10;94014.88;;;11.07;69.74
10946;BME280;5525;42.648;23.368;2023-04-02T19:39:57;94009.88;;;11.09;70.41
10946;BME280;5525;42.648;23.368;2023-04-02T19:42:42;94007.88;;;11.06;69.88
10946;BME280;5525;42.648;23.368;2023-04-02T19:45:24;94009.81;;;11.05;70.43
10946;BME280;5525;42.648;23.368;2023-04-02T19:47:53;94017.56;;;10.95;71.28
10946;BME280;5525;42.648;23.368;2023-04-02T19:50:20;94020.09;;;10.88;72.28
10946;BME280;5525;42.648;23.368;2023-04-02T19:52:47;94020.28;;;10.95;72.66
10946;BME280;5525;42.648;23.368;2023-04-02T19:55:13;94024.13;;;10.94;73.88
10946;BME280;5525;42.648;23.368;2023-04-02T19:57:40;94032.88;;;11.03;74.10
10946;BME280;5525;42.648;23.368;2023-04-02T20:00:11;94021.97;;;10.99;74.52
10946;BME280;5525;42.648;23.368;2023-04-02T20:02:40;94024.34;;;11.01;75.16
10946;BME280;5525;42.648;23.368;2023-04-02T20:05:07;94020.38;;;10.98;75.80
10946;BME280;5525;42.648;23.368;2023-04-02T20:07:34;94024.00;;;10.90;76.86
10946;BME280;5525;42.648;23.368;2023-04-02T20:10:01;94026.06;;;10.69;78.67
10946;BME280;5525;42.648;23.368;2023-04-02T20:12:27;94026.63;;;10.63;79.92
10946;BME280;5525;42.648;23.368;2023-04-02T20:14:54;94029.59;;;10.58;80.83
10946;BME280;5525;42.648;23.368;2023-04-02T20:17:21;94027.22;;;10.56;82.05
10946;BME280;5525;42.648;23.368;2023-04-02T20:19:49;94032.84;;;10.51;82.60
10946;BME280;5525;42.648;23.368;2023-04-02T20:22:15;94034.53;;;10.56;82.51
10946;BME280;5525;42.648;23.368;2023-04-02T20:24:43;94030.81;;;10.48;83.01
10946;BME280;5525;42.648;23.368;2023-04-02T20:27:10;94021.81;;;10.56;83.84
10946;BME280;5525;42.648;23.368;2023-04-02T20:29:36;94021.72;;;10.41;84.85
10946;BME280;5525;42.648;23.368;2023-04-02T20:32:05;94016.19;;;10.49;85.60
10946;BME280;5525;42.648;23.368;2023-04-02T20:34:32;94026.66;;;10.39;86.65
10946;BME280;5525;42.648;23.368;2023-04-02T20:37:00;94034.41;;;10.28;88.41
10946;BME280;5525;42.648;23.368;2023-04-02T20:39:27;94034.97;;;10.21;89.39
10946;BME280;5525;42.648;23.368;2023-04-02T20:41:53;94037.31;;;10.23;90.61
10946;BME280;5525;42.648;23.368;2023-04-02T20:44:21;94037.91;;;10.29;90.99
10946;BME280;5525;42.648;23.368;2023-04-02T20:46:47;94040.28;;;10.30;90.69
10946;BME280;5525;42.648;23.368;2023-04-02T20:49:14;94045.88;;;10.37;91.37
10946;BME280;5525;42.648;23.368;2023-04-02T20:51:41;94041.97;;;10.35;91.56
10946;BME280;5525;42.648;23.368;2023-04-02T20:54:09;94045.63;;;10.18;93.80
10946;BME280;5525;42.648;23.368;2023-04-02T20:56:35;94044.41;;;10.15;94.44
10946;BME280;5525;42.648;23.368;2023-04-02T20:59:02;94048.78;;;10.20;94.75
10946;BME280;5525;42.648;23.368;2023-04-02T21:01:29;94039.22;;;10.22;94.66
10946;BME280;5525;42.648;23.368;2023-04-02T21:03:57;94040.25;;;10.18;96.38
10946;BME280;5525;42.648;23.368;2023-04-02T21:06:26;94045.41;;;10.11;97.40
10946;BME280;5525;42.648;23.368;2023-04-02T21:08:53;94045.75;;;10.09;98.09
10946;BME280;5525;42.648;23.368;2023-04-02T21:11:23;94039.50;;;9.97;100.00
10946;BME280;5525;42.648;23.368;2023-04-02T21:13:50;94041.75;;;9.95;100.00
10946;BME280;5525;42.648;23.368;2023-04-02T21:16:19;94044.34;;;9.91;100.00
10946;BME280;5525;42.648;23.368;2023-04-02T21:18:47;94049.25;;;9.77;100.00
10946;BME280;5525;42.648;23.368;2023-04-02T21:21:16;94044.88;;;9.73;100.00
10946;BME280;5525;42.648;23.368;2023-04-02T21:23:43;94041.56;;;9.67;100.00
10946;BME280;5525;42.648;23.368;2023-04-02T21:26:11;94051.91;;;9.65;100.00
10946;BME280;5525;42.648;23.368;2023-04-02T21:28:41;94060.38;;;9.76;100.00
10946;BME280;5525;42.648;23.368;2023-04-02T21:31:09;94056.34;;;9.82;100.00
10946;BME280;5525;42.648;23.368;2023-04-02T21:33:37;94060.41;;;9.88;100.00
10946;BME280;5525;42.648;23.368;2023-04-02T21:36:06;94058.00;;;9.74;100.00
10946;BME280;5525;42.648;23.368;2023-04-02T21:38:32;94057.09;;;9.70;100.00
10946;BME280;5525;42.648;23.368;2023-04-02T21:41:09;94067.31;;;9.77;100.00
10946;BME280;5525;42.648;23.368;2023-04-02T21:43:35;94063.72;;;9.73;100.00
10946;BME280;5525;42.648;23.368;2023-04-02T21:46:04;94069.47;;;9.71;100.00
10946;BME280;5525;42.648;23.368;2023-04-02T21:48:31;94064.50;;;9.73;100.00
10946;BME280;5525;42.648;23.368;2023-04-02T21:51:04;94066.53;;;9.76;100.00
10946;BME280;5525;42.648;23.368;2023-04-02T21:53:31;94065.88;;;9.79;100.00
10946;BME280;5525;42.648;23.368;2023-04-02T21:56:01;94075.69;;;9.84;100.00
10946;BME280;5525;42.648;23.368;2023-04-02T21:58:28;94077.88;;;9.70;100.00
10946;BME280;5525;42.648;23.368;2023-04-02T22:00:55;94073.09;;;9.55;100.00
10946;BME280;5525;42.648;23.368;2023-04-02T22:03:25;94079.59;;;9.54;100.00
10946;BME280;5525;42.648;23.368;2023-04-02T22:06:00;94074.75;;;9.47;100.00
10946;BME280;5525;42.648;23.368;2023-04-02T22:08:26;94073.53;;;9.57;100.00
10946;BME280;5525;42.648;23.368;2023-04-02T22:10:53;94067.94;;;9.29;100.00
10946;BME280;5525;42.648;23.368;2023-04-02T22:13:20;94072.59;;;9.20;100.00
10946;BME280;5525;42.648;23.368;2023-04-02T22:15:46;94072.75;;;9.24;100.00
10946;BME280;5525;42.648;23.368;2023-04-02T22:18:13;94066.13;;;9.33;100.00
10946;BME280;5525;42.648;23.368;2023-04-02T22:20:41;94065.19;;;9.38;100.00
10946;BME280;5525;42.648;23.368;2023-04-02T22:23:08;94071.63;;;9.25;100.00
10946;BME280;5525;42.648;23.368;2023-04-02T22:25:35;94071.63;;;9.25;100.00
10946;BME280;5525;42.648;23.368;2023-04-02T22:28:02;94070.38;;;9.02;100.00
10946;BME280;5525;42.648;23.368;2023-04-02T22:30:28;94067.47;;;8.86;100.00
10946;BME280;5525;42.648;23.368;2023-04-02T22:32:55;94071.94;;;8.82;100.00
10946;BME280;5525;42.648;23.368;2023-04-02T22:35:23;94073.25;;;8.76;100.00
10946;BME280;5525;42.648;23.368;2023-04-02T22:37:50;94074.25;;;8.63;100.00
10946;BME280;5525;42.648;23.368;2023-04-02T22:40:17;94077.25;;;8.70;100.00
10946;BME280;5525;42.648;23.368;2023-04-02T22:42:44;94079.94;;;8.70;100.00
10946;BME280;5525;42.648;23.368;2023-04-02T22:45:11;94079.38;;;8.85;100.00
10946;BME280;5525;42.648;23.368;2023-04-02T22:47:38;94068.78;;;8.80;100.00
10946;BME280;5525;42.648;23.368;2023-04-02T22:50:05;94074.44;;;8.87;100.00
10946;BME280;5525;42.648;23.368;2023-04-02T22:52:32;94073.97;;;8.85;100.00
10946;BME280;5525;42.648;23.368;2023-04-02T22:55:00;94070.16;;;8.86;100.00
10946;BME280;5525;42.648;23.368;2023-04-02T22:57:27;94082.06;;;8.85;100.00
10946;BME280;5525;42.648;23.368;2023-04-02T22:59:53;94080.75;;;8.91;100.00
10946;BME280;5525;42.648;23.368;2023-04-02T23:02:20;94081.13;;;9.02;100.00
10946;BME280;5525;42.648;23.368;2023-04-02T23:04:47;94077.53;;;8.98;100.00
10946;BME280;5525;42.648;23.368;2023-04-02T23:07:13;94084.41;;;8.87;100.00
10946;BME280;5525;42.648;23.368;2023-04-02T23:09:40;94079.03;;;8.87;100.00
10946;BME280;5525;42.648;23.368;2023-04-02T23:12:08;94076.06;;;8.80;100.00
10946;BME280;5525;42.648;23.368;2023-04-02T23:14:35;94078.41;;;8.81;100.00
10946;BME280;5525;42.648;23.368;2023-04-02T23:17:01;94075.63;;;8.78;100.00
10946;BME280;5525;42.648;23.368;2023-04-02T23:19:28;94069.28;;;8.74;100.00
10946;BME280;5525;42.648;23.368;2023-04-02T23:21:55;94078.34;;;8.40;100.00
10946;BME280;5525;42.648;23.368;2023-04-02T23:24:21;94074.25;;;8.34;100.00
10946;BME280;5525;42.648;23.368;2023-04-02T23:26:48;94082.91;;;8.48;100.00
10946;BME280;5525;42.648;23.368;2023-04-02T23:29:16;94078.03;;;8.41;100.00
10946;BME280;5525;42.648;23.368;2023-04-02T23:31:43;94072.16;;;8.39;100.00
10946;BME280;5525;42.648;23.368;2023-04-02T23:34:10;94072.91;;;8.11;100.00
10946;BME280;5525;42.648;23.368;2023-04-02T23:36:37;94069.56;;;8.14;100.00
10946;BME280;5525;42.648;23.368;2023-04-02T23:39:05;94074.09;;;7.93;100.00
10946;BME280;5525;42.648;23.368;2023-04-02T23:41:34;94069.47;;;7.93;100.00
10946;BME280;5525;42.648;23.368;2023-04-02T23:44:01;94067.91;;;8.01;100.00
10946;BME280;5525;42.648;23.368;2023-04-02T23:46:30;94070.44;;;7.97;100.00
10946;BME280;5525;42.648;23.368;2023-04-02T23:48:58;94070.63;;;7.84;100.00
10946;BME280;5525;42.648;23.368;2023-04-02T23:51:25;94063.81;;;7.86;100.00
10946;BME280;5525;42.648;23.368;2023-04-02T23:53:53;94071.72;;;7.91;100.00
10946;BME280;5525;42.648;23.368;2023-04-02T23:56:21;94067.31;;;7.87;100.00
10946;BME280;5525;42.648;23.368;2023-04-02T23:58:49;94067.22;;;7.58;100.00
